Campbell, Virginia
Current Conditions -  °F | °C
As of 9:53 AM on Saturday 25 Oct 2014 (Local Time) from KCHO Reporting Station
Clear Clear  
Wind Chill: 56°   Ceiling: Unl
Heat Index: 56°   Visibility: 10mi
Dew Point: 38°   Wind: 6mph
Humidity: 51%   Direction: 220°SW
Pressure: 29.99"   Gusts: NA
Location:  38.0053°N, 78.3345°W
Report Text: KCHO 251353Z 22005KT 10SM CLR 13/03 A2999 RMK AO2 SLP155 T01330033
Loading
Personal Weather Stations






























Interactive Weather Map
Tropical Storm Tracking
New forecast layout! Learn more

10-Day Weather Forecast

Advertisements
Track Severe Weather on mobile